sensor_id;sensor_type;location;lat;lon;timestamp;P1;durP1;ratioP1;P2;durP2;ratioP2
31818;SDS011;18384;48.860;9.188;2023-07-22T00:01:09;3.67;;;1.95;;
31818;SDS011;18384;48.860;9.188;2023-07-22T00:03:35;5.12;;;1.87;;
31818;SDS011;18384;48.860;9.188;2023-07-22T00:06:08;3.80;;;1.87;;
31818;SDS011;18384;48.860;9.188;2023-07-22T00:08:35;3.80;;;2.10;;
31818;SDS011;18384;48.860;9.188;2023-07-22T00:11:06;5.28;;;2.50;;
31818;SDS011;18384;48.860;9.188;2023-07-22T00:13:33;4.32;;;2.20;;
31818;SDS011;18384;48.860;9.188;2023-07-22T00:16:00;4.60;;;2.20;;
31818;SDS011;18384;48.860;9.188;2023-07-22T00:18:27;4.28;;;1.75;;
31818;SDS011;18384;48.860;9.188;2023-07-22T00:20:54;5.47;;;2.33;;
31818;SDS011;18384;48.860;9.188;2023-07-22T00:23:20;3.62;;;2.00;;
31818;SDS011;18384;48.860;9.188;2023-07-22T00:25:46;7.50;;;2.22;;
31818;SDS011;18384;48.860;9.188;2023-07-22T00:28:13;7.45;;;2.25;;
31818;SDS011;18384;48.860;9.188;2023-07-22T00:30:39;5.03;;;2.05;;
31818;SDS011;18384;48.860;9.188;2023-07-22T00:33:06;3.40;;;1.98;;
31818;SDS011;18384;48.860;9.188;2023-07-22T00:35:34;8.38;;;1.90;;
31818;SDS011;18384;48.860;9.188;2023-07-22T00:38:00;5.55;;;1.80;;
31818;SDS011;18384;48.860;9.188;2023-07-22T00:40:27;3.37;;;1.87;;
31818;SDS011;18384;48.860;9.188;2023-07-22T00:42:57;4.22;;;2.30;;
31818;SDS011;18384;48.860;9.188;2023-07-22T00:45:24;6.50;;;1.83;;
31818;SDS011;18384;48.860;9.188;2023-07-22T00:47:50;4.37;;;2.10;;
31818;SDS011;18384;48.860;9.188;2023-07-22T00:50:16;3.67;;;1.70;;
31818;SDS011;18384;48.860;9.188;2023-07-22T00:52:42;4.53;;;1.80;;
31818;SDS011;18384;48.860;9.188;2023-07-22T00:55:09;6.12;;;2.20;;
31818;SDS011;18384;48.860;9.188;2023-07-22T00:57:35;6.07;;;2.03;;
31818;SDS011;18384;48.860;9.188;2023-07-22T01:00:03;4.47;;;2.15;;
31818;SDS011;18384;48.860;9.188;2023-07-22T01:02:31;6.15;;;2.50;;
31818;SDS011;18384;48.860;9.188;2023-07-22T01:04:57;3.67;;;2.28;;
31818;SDS011;18384;48.860;9.188;2023-07-22T01:07:23;5.20;;;2.05;;
31818;SDS011;18384;48.860;9.188;2023-07-22T01:09:50;4.62;;;2.00;;
31818;SDS011;18384;48.860;9.188;2023-07-22T01:12:21;5.35;;;1.98;;
31818;SDS011;18384;48.860;9.188;2023-07-22T01:14:48;7.37;;;2.30;;
31818;SDS011;18384;48.860;9.188;2023-07-22T01:17:15;8.90;;;2.03;;
31818;SDS011;18384;48.860;9.188;2023-07-22T01:19:41;5.28;;;2.17;;
31818;SDS011;18384;48.860;9.188;2023-07-22T01:22:09;7.50;;;2.20;;
31818;SDS011;18384;48.860;9.188;2023-07-22T01:24:38;4.35;;;2.33;;
31818;SDS011;18384;48.860;9.188;2023-07-22T01:27:05;4.47;;;2.30;;
31818;SDS011;18384;48.860;9.188;2023-07-22T01:29:35;6.12;;;2.35;;
31818;SDS011;18384;48.860;9.188;2023-07-22T01:32:01;4.32;;;1.95;;
31818;SDS011;18384;48.860;9.188;2023-07-22T01:34:27;4.05;;;2.08;;
31818;SDS011;18384;48.860;9.188;2023-07-22T01:36:55;5.07;;;2.10;;
31818;SDS011;18384;48.860;9.188;2023-07-22T01:39:21;5.20;;;2.20;;
31818;SDS011;18384;48.860;9.188;2023-07-22T01:41:47;4.32;;;2.05;;
31818;SDS011;18384;48.860;9.188;2023-07-22T01:44:14;5.20;;;2.30;;
31818;SDS011;18384;48.860;9.188;2023-07-22T01:46:40;6.78;;;2.10;;
31818;SDS011;18384;48.860;9.188;2023-07-22T01:49:07;5.15;;;2.37;;
31818;SDS011;18384;48.860;9.188;2023-07-22T01:51:36;6.18;;;2.60;;
31818;SDS011;18384;48.860;9.188;2023-07-22T01:54:03;8.38;;;2.47;;
31818;SDS011;18384;48.860;9.188;2023-07-22T01:56:30;4.15;;;2.30;;
31818;SDS011;18384;48.860;9.188;2023-07-22T02:01:22;11.45;;;2.35;;
31818;SDS011;18384;48.860;9.188;2023-07-22T02:03:49;5.87;;;2.37;;
31818;SDS011;18384;48.860;9.188;2023-07-22T02:06:15;4.00;;;2.35;;
31818;SDS011;18384;48.860;9.188;2023-07-22T02:08:41;4.18;;;2.33;;
31818;SDS011;18384;48.860;9.188;2023-07-22T02:11:07;4.55;;;2.17;;
31818;SDS011;18384;48.860;9.188;2023-07-22T02:13:34;4.07;;;2.50;;
31818;SDS011;18384;48.860;9.188;2023-07-22T02:16:01;3.62;;;2.30;;
31818;SDS011;18384;48.860;9.188;2023-07-22T02:18:28;5.07;;;2.37;;
31818;SDS011;18384;48.860;9.188;2023-07-22T02:20:55;7.05;;;2.70;;
31818;SDS011;18384;48.860;9.188;2023-07-22T02:23:23;5.80;;;2.45;;
31818;SDS011;18384;48.860;9.188;2023-07-22T02:25:50;4.65;;;2.30;;
31818;SDS011;18384;48.860;9.188;2023-07-22T02:28:18;3.70;;;2.03;;
31818;SDS011;18384;48.860;9.188;2023-07-22T02:30:50;4.78;;;2.72;;
31818;SDS011;18384;48.860;9.188;2023-07-22T02:33:18;5.72;;;2.40;;
31818;SDS011;18384;48.860;9.188;2023-07-22T02:35:46;6.68;;;2.20;;
31818;SDS011;18384;48.860;9.188;2023-07-22T02:38:13;4.18;;;2.62;;
31818;SDS011;18384;48.860;9.188;2023-07-22T02:40:39;5.32;;;2.40;;
31818;SDS011;18384;48.860;9.188;2023-07-22T02:43:06;4.60;;;2.70;;
31818;SDS011;18384;48.860;9.188;2023-07-22T02:45:32;6.53;;;2.37;;
31818;SDS011;18384;48.860;9.188;2023-07-22T02:47:59;7.43;;;2.72;;
31818;SDS011;18384;48.860;9.188;2023-07-22T02:50:25;6.40;;;2.50;;
31818;SDS011;18384;48.860;9.188;2023-07-22T02:52:52;4.03;;;2.30;;
31818;SDS011;18384;48.860;9.188;2023-07-22T02:55:18;5.93;;;2.70;;
31818;SDS011;18384;48.860;9.188;2023-07-22T03:00:11;4.82;;;2.37;;
31818;SDS011;18384;48.860;9.188;2023-07-22T03:02:39;4.32;;;2.37;;
31818;SDS011;18384;48.860;9.188;2023-07-22T03:05:08;6.78;;;2.80;;
31818;SDS011;18384;48.860;9.188;2023-07-22T03:07:38;3.42;;;2.20;;
31818;SDS011;18384;48.860;9.188;2023-07-22T03:10:05;6.07;;;2.87;;
31818;SDS011;18384;48.860;9.188;2023-07-22T03:12:33;5.97;;;3.00;;
31818;SDS011;18384;48.860;9.188;2023-07-22T03:15:00;5.37;;;3.03;;
31818;SDS011;18384;48.860;9.188;2023-07-22T03:17:26;5.45;;;2.92;;
31818;SDS011;18384;48.860;9.188;2023-07-22T03:19:52;3.85;;;2.42;;
31818;SDS011;18384;48.860;9.188;2023-07-22T03:22:18;4.65;;;3.00;;
31818;SDS011;18384;48.860;9.188;2023-07-22T03:24:45;6.62;;;2.65;;
31818;SDS011;18384;48.860;9.188;2023-07-22T03:29:38;4.83;;;2.30;;
31818;SDS011;18384;48.860;9.188;2023-07-22T03:32:04;6.20;;;3.10;;
31818;SDS011;18384;48.860;9.188;2023-07-22T03:34:31;7.30;;;2.65;;
31818;SDS011;18384;48.860;9.188;2023-07-22T03:36:57;6.62;;;2.25;;
31818;SDS011;18384;48.860;9.188;2023-07-22T03:39:24;10.57;;;3.12;;
31818;SDS011;18384;48.860;9.188;2023-07-22T03:44:16;8.10;;;2.65;;
31818;SDS011;18384;48.860;9.188;2023-07-22T03:46:42;4.85;;;2.65;;
31818;SDS011;18384;48.860;9.188;2023-07-22T03:49:08;7.30;;;3.10;;
31818;SDS011;18384;48.860;9.188;2023-07-22T03:54:00;12.00;;;3.37;;
31818;SDS011;18384;48.860;9.188;2023-07-22T03:56:27;10.13;;;3.42;;
31818;SDS011;18384;48.860;9.188;2023-07-22T03:58:53;6.15;;;3.20;;
31818;SDS011;18384;48.860;9.188;2023-07-22T04:01:19;7.45;;;2.92;;
31818;SDS011;18384;48.860;9.188;2023-07-22T04:03:45;5.60;;;3.12;;
31818;SDS011;18384;48.860;9.188;2023-07-22T04:06:11;4.68;;;3.00;;
31818;SDS011;18384;48.860;9.188;2023-07-22T04:08:37;7.45;;;3.00;;
31818;SDS011;18384;48.860;9.188;2023-07-22T04:11:03;7.55;;;2.95;;
31818;SDS011;18384;48.860;9.188;2023-07-22T04:13:29;8.10;;;2.92;;
31818;SDS011;18384;48.860;9.188;2023-07-22T04:15:55;4.95;;;3.10;;
31818;SDS011;18384;48.860;9.188;2023-07-22T04:18:22;9.30;;;3.05;;
31818;SDS011;18384;48.860;9.188;2023-07-22T04:20:49;5.65;;;3.00;;
31818;SDS011;18384;48.860;9.188;2023-07-22T04:23:22;6.82;;;3.03;;
31818;SDS011;18384;48.860;9.188;2023-07-22T04:25:48;7.12;;;3.22;;
31818;SDS011;18384;48.860;9.188;2023-07-22T04:30:41;8.65;;;3.42;;
31818;SDS011;18384;48.860;9.188;2023-07-22T04:33:07;7.93;;;3.00;;
31818;SDS011;18384;48.860;9.188;2023-07-22T04:35:40;7.93;;;3.20;;
31818;SDS011;18384;48.860;9.188;2023-07-22T04:38:06;6.28;;;2.70;;
31818;SDS011;18384;48.860;9.188;2023-07-22T04:40:32;8.60;;;3.25;;
31818;SDS011;18384;48.860;9.188;2023-07-22T04:42:58;5.72;;;3.10;;
31818;SDS011;18384;48.860;9.188;2023-07-22T04:45:25;5.80;;;3.00;;
31818;SDS011;18384;48.860;9.188;2023-07-22T04:47:51;7.28;;;3.25;;
31818;SDS011;18384;48.860;9.188;2023-07-22T04:50:17;6.80;;;3.58;;
31818;SDS011;18384;48.860;9.188;2023-07-22T04:52:47;7.72;;;3.17;;
31818;SDS011;18384;48.860;9.188;2023-07-22T04:55:13;5.20;;;3.35;;
31818;SDS011;18384;48.860;9.188;2023-07-22T04:57:40;9.18;;;3.55;;
31818;SDS011;18384;48.860;9.188;2023-07-22T05:00:08;5.53;;;2.90;;
31818;SDS011;18384;48.860;9.188;2023-07-22T05:02:35;7.10;;;3.00;;
31818;SDS011;18384;48.860;9.188;2023-07-22T05:05:01;5.62;;;2.85;;
31818;SDS011;18384;48.860;9.188;2023-07-22T05:07:27;6.05;;;3.10;;
31818;SDS011;18384;48.860;9.188;2023-07-22T05:09:53;6.65;;;2.92;;
31818;SDS011;18384;48.860;9.188;2023-07-22T05:12:19;6.45;;;3.22;;
31818;SDS011;18384;48.860;9.188;2023-07-22T05:14:45;10.23;;;3.40;;
31818;SDS011;18384;48.860;9.188;2023-07-22T05:17:11;7.55;;;2.55;;
31818;SDS011;18384;48.860;9.188;2023-07-22T05:19:38;8.88;;;3.47;;
31818;SDS011;18384;48.860;9.188;2023-07-22T05:22:04;7.75;;;2.90;;
31818;SDS011;18384;48.860;9.188;2023-07-22T05:24:30;8.25;;;2.97;;
31818;SDS011;18384;48.860;9.188;2023-07-22T05:26:56;4.87;;;2.70;;
31818;SDS011;18384;48.860;9.188;2023-07-22T05:29:22;4.05;;;2.47;;
31818;SDS011;18384;48.860;9.188;2023-07-22T05:31:48;8.15;;;2.50;;
31818;SDS011;18384;48.860;9.188;2023-07-22T05:34:14;7.47;;;2.67;;
31818;SDS011;18384;48.860;9.188;2023-07-22T05:36:40;4.30;;;2.25;;
31818;SDS011;18384;48.860;9.188;2023-07-22T05:39:06;6.18;;;3.05;;
31818;SDS011;18384;48.860;9.188;2023-07-22T05:41:33;4.43;;;2.25;;
31818;SDS011;18384;48.860;9.188;2023-07-22T05:43:59;4.80;;;2.75;;
31818;SDS011;18384;48.860;9.188;2023-07-22T05:46:25;3.62;;;2.50;;
31818;SDS011;18384;48.860;9.188;2023-07-22T05:48:52;10.27;;;2.65;;
31818;SDS011;18384;48.860;9.188;2023-07-22T05:51:18;8.13;;;2.72;;
31818;SDS011;18384;48.860;9.188;2023-07-22T05:56:10;7.53;;;2.60;;
31818;SDS011;18384;48.860;9.188;2023-07-22T05:58:36;5.75;;;2.60;;
31818;SDS011;18384;48.860;9.188;2023-07-22T06:01:02;6.20;;;2.25;;
31818;SDS011;18384;48.860;9.188;2023-07-22T06:03:28;5.50;;;2.70;;
31818;SDS011;18384;48.860;9.188;2023-07-22T06:05:54;4.35;;;2.30;;
31818;SDS011;18384;48.860;9.188;2023-07-22T06:08:20;5.70;;;2.55;;
31818;SDS011;18384;48.860;9.188;2023-07-22T06:10:47;10.32;;;2.70;;
31818;SDS011;18384;48.860;9.188;2023-07-22T06:13:13;6.78;;;2.55;;
31818;SDS011;18384;48.860;9.188;2023-07-22T06:15:39;5.45;;;2.70;;
31818;SDS011;18384;48.860;9.188;2023-07-22T06:18:05;7.03;;;2.50;;
31818;SDS011;18384;48.860;9.188;2023-07-22T06:20:34;4.32;;;2.67;;
31818;SDS011;18384;48.860;9.188;2023-07-22T06:23:01;4.82;;;2.47;;
31818;SDS011;18384;48.860;9.188;2023-07-22T06:25:28;5.62;;;2.12;;
31818;SDS011;18384;48.860;9.188;2023-07-22T06:27:54;7.55;;;2.22;;
31818;SDS011;18384;48.860;9.188;2023-07-22T06:30:20;8.25;;;2.30;;
31818;SDS011;18384;48.860;9.188;2023-07-22T06:32:46;11.55;;;2.45;;
31818;SDS011;18384;48.860;9.188;2023-07-22T06:35:12;4.70;;;2.08;;
31818;SDS011;18384;48.860;9.188;2023-07-22T06:37:38;4.28;;;2.30;;
31818;SDS011;18384;48.860;9.188;2023-07-22T06:40:05;5.50;;;2.35;;
31818;SDS011;18384;48.860;9.188;2023-07-22T06:42:32;5.10;;;1.92;;
31818;SDS011;18384;48.860;9.188;2023-07-22T06:44:59;6.22;;;2.22;;
31818;SDS011;18384;48.860;9.188;2023-07-22T06:47:25;6.70;;;2.20;;
31818;SDS011;18384;48.860;9.188;2023-07-22T06:49:51;6.18;;;2.28;;
31818;SDS011;18384;48.860;9.188;2023-07-22T06:52:17;6.47;;;2.15;;
31818;SDS011;18384;48.860;9.188;2023-07-22T06:57:09;3.50;;;1.77;;
31818;SDS011;18384;48.860;9.188;2023-07-22T06:59:35;6.43;;;1.98;;
31818;SDS011;18384;48.860;9.188;2023-07-22T07:02:02;5.32;;;2.12;;
31818;SDS011;18384;48.860;9.188;2023-07-22T07:04:30;8.85;;;2.25;;
31818;SDS011;18384;48.860;9.188;2023-07-22T07:06:56;4.72;;;1.83;;
31818;SDS011;18384;48.860;9.188;2023-07-22T07:09:22;4.82;;;1.60;;
31818;SDS011;18384;48.860;9.188;2023-07-22T07:11:52;7.72;;;1.83;;
31818;SDS011;18384;48.860;9.188;2023-07-22T07:14:20;7.30;;;1.85;;
31818;SDS011;18384;48.860;9.188;2023-07-22T07:16:47;4.43;;;2.35;;
31818;SDS011;18384;48.860;9.188;2023-07-22T07:19:13;6.93;;;2.30;;
31818;SDS011;18384;48.860;9.188;2023-07-22T07:21:39;3.12;;;2.08;;
31818;SDS011;18384;48.860;9.188;2023-07-22T07:24:05;4.70;;;1.92;;
31818;SDS011;18384;48.860;9.188;2023-07-22T07:26:31;4.97;;;2.00;;
31818;SDS011;18384;48.860;9.188;2023-07-22T07:28:57;4.10;;;1.80;;
31818;SDS011;18384;48.860;9.188;2023-07-22T07:31:23;6.30;;;2.10;;
31818;SDS011;18384;48.860;9.188;2023-07-22T07:33:50;5.78;;;2.10;;
31818;SDS011;18384;48.860;9.188;2023-07-22T07:36:16;5.40;;;2.10;;
31818;SDS011;18384;48.860;9.188;2023-07-22T07:38:43;6.18;;;2.10;;
31818;SDS011;18384;48.860;9.188;2023-07-22T07:41:09;4.25;;;2.17;;
31818;SDS011;18384;48.860;9.188;2023-07-22T07:43:40;9.15;;;1.90;;
31818;SDS011;18384;48.860;9.188;2023-07-22T07:46:13;5.53;;;2.40;;
31818;SDS011;18384;48.860;9.188;2023-07-22T07:48:58;12.82;;;2.08;;
31818;SDS011;18384;48.860;9.188;2023-07-22T07:51:26;4.22;;;1.83;;
31818;SDS011;18384;48.860;9.188;2023-07-22T07:53:55;5.15;;;2.42;;
31818;SDS011;18384;48.860;9.188;2023-07-22T07:56:25;5.22;;;1.92;;
31818;SDS011;18384;48.860;9.188;2023-07-22T08:01:18;3.37;;;1.55;;
31818;SDS011;18384;48.860;9.188;2023-07-22T08:03:44;5.25;;;1.85;;
31818;SDS011;18384;48.860;9.188;2023-07-22T08:06:11;8.73;;;2.10;;
31818;SDS011;18384;48.860;9.188;2023-07-22T08:08:38;4.25;;;2.10;;
31818;SDS011;18384;48.860;9.188;2023-07-22T08:11:09;4.68;;;1.90;;
31818;SDS011;18384;48.860;9.188;2023-07-22T08:13:39;4.32;;;1.58;;
31818;SDS011;18384;48.860;9.188;2023-07-22T08:16:08;3.37;;;1.70;;
31818;SDS011;18384;48.860;9.188;2023-07-22T08:18:36;4.87;;;1.87;;
31818;SDS011;18384;48.860;9.188;2023-07-22T08:21:03;3.85;;;1.70;;
31818;SDS011;18384;48.860;9.188;2023-07-22T08:23:34;4.35;;;1.90;;
31818;SDS011;18384;48.860;9.188;2023-07-22T08:26:02;4.45;;;1.50;;
31818;SDS011;18384;48.860;9.188;2023-07-22T08:28:30;7.87;;;1.77;;
31818;SDS011;18384;48.860;9.188;2023-07-22T08:30:57;3.97;;;2.17;;
31818;SDS011;18384;48.860;9.188;2023-07-22T08:33:25;4.03;;;1.50;;
31818;SDS011;18384;48.860;9.188;2023-07-22T08:35:52;3.92;;;1.77;;
31818;SDS011;18384;48.860;9.188;2023-07-22T08:40:44;3.90;;;1.80;;
31818;SDS011;18384;48.860;9.188;2023-07-22T08:43:15;4.85;;;1.80;;
31818;SDS011;18384;48.860;9.188;2023-07-22T08:45:45;4.82;;;1.80;;
31818;SDS011;18384;48.860;9.188;2023-07-22T08:48:15;7.37;;;1.80;;
31818;SDS011;18384;48.860;9.188;2023-07-22T08:50:54;4.35;;;1.62;;
31818;SDS011;18384;48.860;9.188;2023-07-22T08:54:23;3.08;;;1.52;;
31818;SDS011;18384;48.860;9.188;2023-07-22T08:59:19;3.12;;;1.70;;
31818;SDS011;18384;48.860;9.188;2023-07-22T09:01:46;4.03;;;1.92;;
31818;SDS011;18384;48.860;9.188;2023-07-22T09:04:14;3.90;;;1.42;;
31818;SDS011;18384;48.860;9.188;2023-07-22T09:06:40;6.22;;;1.95;;
31818;SDS011;18384;48.860;9.188;2023-07-22T09:09:07;5.12;;;1.40;;
31818;SDS011;18384;48.860;9.188;2023-07-22T09:11:35;7.20;;;2.00;;
31818;SDS011;18384;48.860;9.188;2023-07-22T09:14:02;4.35;;;1.87;;
31818;SDS011;18384;48.860;9.188;2023-07-22T09:16:31;7.75;;;2.03;;
31818;SDS011;18384;48.860;9.188;2023-07-22T09:18:58;6.07;;;2.12;;
31818;SDS011;18384;48.860;9.188;2023-07-22T09:21:24;4.20;;;1.75;;
31818;SDS011;18384;48.860;9.188;2023-07-22T09:23:50;5.80;;;1.77;;
31818;SDS011;18384;48.860;9.188;2023-07-22T09:26:17;2.83;;;1.48;;
31818;SDS011;18384;48.860;9.188;2023-07-22T09:28:53;2.45;;;1.30;;
31818;SDS011;18384;48.860;9.188;2023-07-22T09:31:24;3.53;;;1.67;;
31818;SDS011;18384;48.860;9.188;2023-07-22T09:33:51;3.47;;;1.52;;
31818;SDS011;18384;48.860;9.188;2023-07-22T09:36:20;8.32;;;1.40;;
31818;SDS011;18384;48.860;9.188;2023-07-22T09:41:28;4.87;;;1.12;;
31818;SDS011;18384;48.860;9.188;2023-07-22T09:43:57;5.12;;;1.40;;
31818;SDS011;18384;48.860;9.188;2023-07-22T09:46:31;4.28;;;1.23;;
31818;SDS011;18384;48.860;9.188;2023-07-22T09:49:01;4.78;;;1.50;;
31818;SDS011;18384;48.860;9.188;2023-07-22T09:51:37;5.25;;;1.27;;
31818;SDS011;18384;48.860;9.188;2023-07-22T09:54:05;4.15;;;1.30;;
31818;SDS011;18384;48.860;9.188;2023-07-22T09:56:32;3.00;;;1.35;;
31818;SDS011;18384;48.860;9.188;2023-07-22T09:59:13;4.20;;;1.40;;
31818;SDS011;18384;48.860;9.188;2023-07-22T10:01:45;5.68;;;1.55;;
31818;SDS011;18384;48.860;9.188;2023-07-22T10:04:15;3.00;;;1.17;;
31818;SDS011;18384;48.860;9.188;2023-07-22T10:06:42;2.75;;;1.20;;
31818;SDS011;18384;48.860;9.188;2023-07-22T10:09:09;3.87;;;1.17;;
31818;SDS011;18384;48.860;9.188;2023-07-22T10:11:37;4.32;;;1.30;;
31818;SDS011;18384;48.860;9.188;2023-07-22T10:14:05;2.72;;;1.35;;
31818;SDS011;18384;48.860;9.188;2023-07-22T10:16:32;2.03;;;1.08;;
31818;SDS011;18384;48.860;9.188;2023-07-22T10:18:58;4.12;;;1.20;;
31818;SDS011;18384;48.860;9.188;2023-07-22T10:21:25;5.40;;;1.00;;
31818;SDS011;18384;48.860;9.188;2023-07-22T10:23:53;4.60;;;0.98;;
31818;SDS011;18384;48.860;9.188;2023-07-22T10:26:20;4.40;;;1.23;;
31818;SDS011;18384;48.860;9.188;2023-07-22T10:28:47;3.30;;;1.23;;
31818;SDS011;18384;48.860;9.188;2023-07-22T10:31:13;4.07;;;1.40;;
31818;SDS011;18384;48.860;9.188;2023-07-22T10:33:46;9.98;;;1.23;;
31818;SDS011;18384;48.860;9.188;2023-07-22T10:36:14;7.75;;;1.35;;
31818;SDS011;18384;48.860;9.188;2023-07-22T10:38:41;2.33;;;1.02;;
31818;SDS011;18384;48.860;9.188;2023-07-22T10:41:15;2.47;;;1.10;;
31818;SDS011;18384;48.860;9.188;2023-07-22T10:43:42;4.22;;;1.05;;
31818;SDS011;18384;48.860;9.188;2023-07-22T10:46:30;4.45;;;0.93;;
31818;SDS011;18384;48.860;9.188;2023-07-22T10:49:11;3.12;;;1.35;;
31818;SDS011;18384;48.860;9.188;2023-07-22T10:51:39;3.35;;;1.17;;
31818;SDS011;18384;48.860;9.188;2023-07-22T10:54:10;3.10;;;0.95;;
31818;SDS011;18384;48.860;9.188;2023-07-22T10:56:40;2.80;;;1.10;;
31818;SDS011;18384;48.860;9.188;2023-07-22T10:59:13;2.37;;;1.10;;
31818;SDS011;18384;48.860;9.188;2023-07-22T11:01:39;2.00;;;0.80;;
31818;SDS011;18384;48.860;9.188;2023-07-22T11:04:12;3.03;;;1.05;;
31818;SDS011;18384;48.860;9.188;2023-07-22T11:06:58;4.03;;;1.10;;
31818;SDS011;18384;48.860;9.188;2023-07-22T11:12:08;3.47;;;0.90;;
31818;SDS011;18384;48.860;9.188;2023-07-22T11:14:46;3.95;;;0.90;;
31818;SDS011;18384;48.860;9.188;2023-07-22T11:17:17;2.33;;;1.42;;
31818;SDS011;18384;48.860;9.188;2023-07-22T11:19:55;2.35;;;1.00;;
31818;SDS011;18384;48.860;9.188;2023-07-22T11:22:22;4.15;;;0.93;;
31818;SDS011;18384;48.860;9.188;2023-07-22T11:27:14;1.83;;;0.95;;
31818;SDS011;18384;48.860;9.188;2023-07-22T11:32:07;3.45;;;1.10;;
31818;SDS011;18384;48.860;9.188;2023-07-22T11:34:46;2.97;;;1.00;;
31818;SDS011;18384;48.860;9.188;2023-07-22T11:37:13;5.57;;;1.40;;
31818;SDS011;18384;48.860;9.188;2023-07-22T11:39:40;3.17;;;1.10;;
31818;SDS011;18384;48.860;9.188;2023-07-22T11:42:07;4.47;;;1.95;;
31818;SDS011;18384;48.860;9.188;2023-07-22T11:47:03;6.87;;;1.50;;
31818;SDS011;18384;48.860;9.188;2023-07-22T11:49:36;3.58;;;1.37;;
31818;SDS011;18384;48.860;9.188;2023-07-22T11:52:10;3.83;;;1.23;;
31818;SDS011;18384;48.860;9.188;2023-07-22T11:54:43;3.40;;;1.20;;
31818;SDS011;18384;48.860;9.188;2023-07-22T11:57:20;2.33;;;1.00;;
31818;SDS011;18384;48.860;9.188;2023-07-22T11:59:48;11.00;;;1.30;;
31818;SDS011;18384;48.860;9.188;2023-07-22T12:02:20;2.83;;;1.45;;
31818;SDS011;18384;48.860;9.188;2023-07-22T12:05:00;3.65;;;0.95;;
31818;SDS011;18384;48.860;9.188;2023-07-22T12:07:34;3.62;;;1.25;;
31818;SDS011;18384;48.860;9.188;2023-07-22T12:10:03;2.33;;;1.10;;
31818;SDS011;18384;48.860;9.188;2023-07-22T12:12:34;2.28;;;1.30;;
31818;SDS011;18384;48.860;9.188;2023-07-22T12:15:13;1.92;;;1.12;;
31818;SDS011;18384;48.860;9.188;2023-07-22T12:17:45;2.45;;;1.30;;
31818;SDS011;18384;48.860;9.188;2023-07-22T12:20:13;3.87;;;1.05;;
31818;SDS011;18384;48.860;9.188;2023-07-22T12:22:41;2.55;;;1.30;;
31818;SDS011;18384;48.860;9.188;2023-07-22T12:25:08;2.92;;;1.23;;
31818;SDS011;18384;48.860;9.188;2023-07-22T12:27:34;2.45;;;1.30;;
31818;SDS011;18384;48.860;9.188;2023-07-22T12:30:02;3.50;;;1.30;;
31818;SDS011;18384;48.860;9.188;2023-07-22T12:32:29;2.78;;;1.17;;
31818;SDS011;18384;48.860;9.188;2023-07-22T12:37:21;2.47;;;1.10;;
31818;SDS011;18384;48.860;9.188;2023-07-22T12:42:13;2.65;;;1.15;;
31818;SDS011;18384;48.860;9.188;2023-07-22T12:47:05;1.90;;;1.08;;
31818;SDS011;18384;48.860;9.188;2023-07-22T12:49:33;3.37;;;1.20;;
31818;SDS011;18384;48.860;9.188;2023-07-22T12:51:59;1.95;;;1.00;;
31818;SDS011;18384;48.860;9.188;2023-07-22T12:54:29;3.00;;;1.17;;
31818;SDS011;18384;48.860;9.188;2023-07-22T12:56:58;2.47;;;1.20;;
31818;SDS011;18384;48.860;9.188;2023-07-22T12:59:24;2.87;;;1.48;;
31818;SDS011;18384;48.860;9.188;2023-07-22T13:01:50;3.17;;;1.60;;
31818;SDS011;18384;48.860;9.188;2023-07-22T13:04:16;3.03;;;1.50;;
31818;SDS011;18384;48.860;9.188;2023-07-22T13:06:42;4.15;;;1.42;;
31818;SDS011;18384;48.860;9.188;2023-07-22T13:09:08;3.65;;;1.50;;
31818;SDS011;18384;48.860;9.188;2023-07-22T13:11:34;2.42;;;1.05;;
31818;SDS011;18384;48.860;9.188;2023-07-22T13:14:01;3.70;;;1.30;;
31818;SDS011;18384;48.860;9.188;2023-07-22T13:16:27;4.35;;;1.50;;
31818;SDS011;18384;48.860;9.188;2023-07-22T13:18:54;6.72;;;1.35;;
31818;SDS011;18384;48.860;9.188;2023-07-22T13:21:20;3.20;;;1.45;;
31818;SDS011;18384;48.860;9.188;2023-07-22T13:23:46;7.12;;;1.40;;
31818;SDS011;18384;48.860;9.188;2023-07-22T13:26:13;5.30;;;1.50;;
31818;SDS011;18384;48.860;9.188;2023-07-22T13:31:06;5.28;;;1.40;;
31818;SDS011;18384;48.860;9.188;2023-07-22T13:35:58;6.40;;;1.58;;
31818;SDS011;18384;48.860;9.188;2023-07-22T13:40:51;3.10;;;1.33;;
31818;SDS011;18384;48.860;9.188;2023-07-22T13:45:43;2.65;;;1.35;;
31818;SDS011;18384;48.860;9.188;2023-07-22T13:48:09;4.78;;;2.60;;
31818;SDS011;18384;48.860;9.188;2023-07-22T13:50:36;3.25;;;1.70;;
31818;SDS011;18384;48.860;9.188;2023-07-22T13:53:03;7.25;;;1.60;;
31818;SDS011;18384;48.860;9.188;2023-07-22T13:57:55;2.70;;;1.55;;
31818;SDS011;18384;48.860;9.188;2023-07-22T14:02:47;4.18;;;1.70;;
31818;SDS011;18384;48.860;9.188;2023-07-22T14:07:39;3.92;;;1.62;;
31818;SDS011;18384;48.860;9.188;2023-07-22T14:12:33;5.28;;;1.80;;
31818;SDS011;18384;48.860;9.188;2023-07-22T14:17:25;2.85;;;1.33;;
31818;SDS011;18384;48.860;9.188;2023-07-22T14:22:18;5.35;;;1.67;;
31818;SDS011;18384;48.860;9.188;2023-07-22T14:27:10;5.85;;;1.77;;
31818;SDS011;18384;48.860;9.188;2023-07-22T14:32:02;2.97;;;1.50;;
31818;SDS011;18384;48.860;9.188;2023-07-22T14:34:28;2.17;;;1.30;;
31818;SDS011;18384;48.860;9.188;2023-07-22T14:36:54;3.95;;;1.60;;
31818;SDS011;18384;48.860;9.188;2023-07-22T14:39:20;3.47;;;1.60;;
31818;SDS011;18384;48.860;9.188;2023-07-22T14:41:46;4.40;;;1.80;;
31818;SDS011;18384;48.860;9.188;2023-07-22T14:44:12;5.22;;;1.80;;
31818;SDS011;18384;48.860;9.188;2023-07-22T14:46:39;4.70;;;2.00;;
31818;SDS011;18384;48.860;9.188;2023-07-22T14:49:05;5.60;;;1.70;;
31818;SDS011;18384;48.860;9.188;2023-07-22T14:51:34;2.95;;;1.70;;
31818;SDS011;18384;48.860;9.188;2023-07-22T14:54:02;3.53;;;1.75;;
31818;SDS011;18384;48.860;9.188;2023-07-22T14:56:28;4.37;;;2.03;;
31818;SDS011;18384;48.860;9.188;2023-07-22T14:58:54;11.68;;;1.98;;
31818;SDS011;18384;48.860;9.188;2023-07-22T15:01:21;4.37;;;2.30;;
31818;SDS011;18384;48.860;9.188;2023-07-22T15:03:47;3.62;;;1.85;;
31818;SDS011;18384;48.860;9.188;2023-07-22T15:06:13;6.47;;;3.20;;
31818;SDS011;18384;48.860;9.188;2023-07-22T15:08:39;4.72;;;2.03;;
31818;SDS011;18384;48.860;9.188;2023-07-22T15:11:06;5.40;;;2.20;;
31818;SDS011;18384;48.860;9.188;2023-07-22T15:13:33;9.10;;;2.42;;
31818;SDS011;18384;48.860;9.188;2023-07-22T15:15:59;4.05;;;2.10;;
31818;SDS011;18384;48.860;9.188;2023-07-22T15:18:25;4.93;;;1.90;;
31818;SDS011;18384;48.860;9.188;2023-07-22T15:20:51;4.30;;;1.90;;
31818;SDS011;18384;48.860;9.188;2023-07-22T15:23:18;5.22;;;1.70;;
31818;SDS011;18384;48.860;9.188;2023-07-22T15:25:44;3.17;;;1.77;;
31818;SDS011;18384;48.860;9.188;2023-07-22T15:28:10;3.72;;;2.05;;
31818;SDS011;18384;48.860;9.188;2023-07-22T15:30:37;4.87;;;1.70;;
31818;SDS011;18384;48.860;9.188;2023-07-22T15:33:03;4.40;;;1.77;;
31818;SDS011;18384;48.860;9.188;2023-07-22T15:35:30;3.67;;;1.50;;
31818;SDS011;18384;48.860;9.188;2023-07-22T15:40:22;5.22;;;2.00;;
31818;SDS011;18384;48.860;9.188;2023-07-22T15:42:49;3.78;;;1.73;;
31818;SDS011;18384;48.860;9.188;2023-07-22T15:45:15;4.03;;;1.60;;
31818;SDS011;18384;48.860;9.188;2023-07-22T15:47:41;4.30;;;1.77;;
31818;SDS011;18384;48.860;9.188;2023-07-22T15:52:34;4.28;;;1.70;;
31818;SDS011;18384;48.860;9.188;2023-07-22T15:57:26;4.60;;;1.70;;
31818;SDS011;18384;48.860;9.188;2023-07-22T16:02:18;4.30;;;1.70;;
31818;SDS011;18384;48.860;9.188;2023-07-22T16:07:10;5.32;;;1.87;;
31818;SDS011;18384;48.860;9.188;2023-07-22T16:12:02;3.70;;;1.70;;
31818;SDS011;18384;48.860;9.188;2023-07-22T16:14:29;4.90;;;2.30;;
31818;SDS011;18384;48.860;9.188;2023-07-22T16:16:55;4.20;;;1.80;;
31818;SDS011;18384;48.860;9.188;2023-07-22T16:21:47;4.32;;;1.75;;
31818;SDS011;18384;48.860;9.188;2023-07-22T16:26:39;4.18;;;1.70;;